Time;durP1;ratioP1;P1;durP2;ratioP2;P2;SDS_P1;SDS_P2;PMS_P1;PMS_P2;Temp;Humidity;BMP_temperature;BMP_pressure;BME280_temperature;BME280_humidity;BME280_pressure;Samples;Min_cycle;Max_cycle;Signal;HPM_P1;HPM_P2
2023/01/14 00:01:08;;;;;;;8.32;4.35;;;7.40;99.90;;;;;;5073823;28;20044;-75
2023/01/14 00:03:34;;;;;;;14.15;5.10;;;7.40;99.90;;;;;;5074019;28;20036;-75
2023/01/14 00:06:01;;;;;;;13.50;6.00;;;7.40;99.90;;;;;;5074004;28;20535;-75
2023/01/14 00:08:28;;;;;;;9.85;5.30;;;7.40;99.90;;;;;;5055925;28;20392;-76
2023/01/14 00:10:54;;;;;;;8.38;3.75;;;7.50;99.90;;;;;;5073582;28;20058;-75
2023/01/14 00:13:20;;;;;;;12.80;4.63;;;7.50;99.90;;;;;;5073543;28;20083;-76
2023/01/14 00:16:06;;;;;;;12.00;4.72;;;7.50;99.90;;;;;;5073643;28;20048;-76
2023/01/14 00:18:33;;;;;;;8.68;4.70;;;7.50;99.90;;;;;;5073683;28;20041;-76
2023/01/14 00:21:02;;;;;;;13.70;4.72;;;7.50;99.90;;;;;;5073549;28;20123;-75
2023/01/14 00:23:29;;;;;;;9.80;3.80;;;7.60;99.90;;;;;;5073585;28;20041;-76
2023/01/14 00:26:03;;;;;;;18.05;6.07;;;7.60;99.90;;;;;;5074060;28;20048;-75
2023/01/14 00:28:29;;;;;;;13.20;4.50;;;7.60;99.90;;;;;;5073535;28;20049;-76
2023/01/14 00:31:05;;;;;;;11.63;3.97;;;7.70;99.90;;;;;;5073948;28;20127;-76
2023/01/14 00:33:30;;;;;;;15.10;4.78;;;7.70;99.90;;;;;;5055242;28;20041;-76
2023/01/14 00:35:56;;;;;;;11.18;4.40;;;7.80;99.90;;;;;;5073501;28;20056;-76
2023/01/14 00:38:22;;;;;;;9.32;4.25;;;7.70;99.90;;;;;;5056486;28;20067;-76
2023/01/14 00:40:47;;;;;;;11.75;4.53;;;7.70;99.90;;;;;;5074534;28;20084;-77
2023/01/14 00:43:13;;;;;;;10.43;3.85;;;7.70;99.90;;;;;;5077584;28;20048;-76
2023/01/14 00:45:39;;;;;;;12.02;4.30;;;7.70;99.90;;;;;;5059186;28;20044;-76
2023/01/14 00:48:05;;;;;;;8.45;3.28;;;7.70;99.90;;;;;;5060211;28;20123;-76
2023/01/14 00:50:30;;;;;;;11.43;4.07;;;7.70;99.90;;;;;;5077158;28;20558;-76
2023/01/14 00:52:56;;;;;;;6.28;3.35;;;7.70;99.90;;;;;;5077361;28;20484;-76
2023/01/14 00:55:21;;;;;;;13.02;3.92;;;7.80;99.90;;;;;;5076982;28;20412;-77
2023/01/14 00:57:47;;;;;;;11.13;3.60;;;7.80;99.90;;;;;;5076989;28;20040;-76
2023/01/14 01:00:13;;;;;;;10.00;3.65;;;7.80;99.90;;;;;;5076876;28;20044;-76
2023/01/14 01:02:39;;;;;;;9.77;4.07;;;7.70;99.90;;;;;;5077852;28;20040;-77
2023/01/14 01:05:05;;;;;;;9.90;4.35;;;7.80;99.90;;;;;;5059651;28;20511;-77
2023/01/14 01:07:31;;;;;;;10.93;3.75;;;7.80;99.90;;;;;;5076926;28;20048;-77
2023/01/14 01:09:56;;;;;;;11.30;3.53;;;7.80;99.90;;;;;;5058866;28;20094;-77
2023/01/14 01:12:22;;;;;;;6.97;3.30;;;7.80;99.90;;;;;;5077277;28;20032;-77
2023/01/14 01:14:47;;;;;;;11.60;3.97;;;7.80;99.90;;;;;;5059062;28;20083;-76
2023/01/14 01:17:13;;;;;;;12.55;3.80;;;7.80;99.90;;;;;;5076626;28;20051;-76
2023/01/14 01:19:39;;;;;;;8.27;3.50;;;7.70;99.90;;;;;;5076609;28;20036;-77
2023/01/14 01:22:05;;;;;;;14.27;3.95;;;7.70;99.90;;;;;;5076717;28;20047;-76
2023/01/14 01:24:30;;;;;;;14.48;4.22;;;7.70;99.90;;;;;;5077612;28;20033;-77
2023/01/14 01:26:57;;;;;;;9.32;3.78;;;7.60;99.90;;;;;;5058801;28;20468;-76
2023/01/14 01:29:23;;;;;;;11.18;3.40;;;7.60;99.90;;;;;;5076503;28;20052;-77
2023/01/14 01:31:49;;;;;;;11.57;5.03;;;7.60;99.90;;;;;;5076498;28;20090;-76
2023/01/14 01:34:14;;;;;;;7.85;4.55;;;7.60;99.90;;;;;;5076872;28;20033;-77
2023/01/14 01:36:40;;;;;;;10.90;3.78;;;7.60;99.90;;;;;;5058831;28;20041;-77
2023/01/14 01:39:05;;;;;;;16.42;5.30;;;7.50;99.90;;;;;;5076567;28;20495;-77
2023/01/14 01:41:32;;;;;;;10.85;5.25;;;7.50;99.90;;;;;;5059340;28;20182;-76
2023/01/14 01:43:59;;;;;;;11.50;4.25;;;7.40;99.90;;;;;;5076812;28;20037;-77
2023/01/14 01:46:26;;;;;;;12.57;4.43;;;7.40;99.90;;;;;;5059348;28;20373;-77
2023/01/14 01:48:52;;;;;;;11.30;3.25;;;7.40;99.90;;;;;;5076190;28;20032;-77
2023/01/14 01:51:22;;;;;;;11.90;4.20;;;7.30;99.90;;;;;;5075811;28;20141;-77
2023/01/14 01:53:52;;;;;;;13.45;4.20;;;7.30;99.90;;;;;;5057887;28;20040;-77
2023/01/14 01:56:23;;;;;;;10.48;3.70;;;7.30;99.90;;;;;;5076048;28;20488;-77
2023/01/14 01:58:50;;;;;;;10.15;3.85;;;7.20;99.90;;;;;;5076165;28;20045;-77
2023/01/14 02:01:16;;;;;;;8.00;3.75;;;7.20;99.90;;;;;;5075953;28;20036;-77
2023/01/14 02:03:45;;;;;;;12.70;3.90;;;7.10;99.90;;;;;;5076043;28;20082;-77
2023/01/14 02:06:11;;;;;;;7.65;3.45;;;7.20;99.90;;;;;;5075968;28;20048;-77
2023/01/14 02:08:41;;;;;;;12.82;4.10;;;7.30;99.90;;;;;;5076229;28;20492;-76
2023/01/14 02:11:15;;;;;;;9.27;3.30;;;7.30;99.90;;;;;;5058232;28;20048;-76
2023/01/14 02:14:01;;;;;;;10.55;3.83;;;7.30;99.90;;;;;;5080743;28;20071;-76
2023/01/14 02:16:44;;;;;;;15.30;4.20;;;7.40;99.90;;;;;;5061444;28;20087;-76
2023/01/14 02:19:21;;;;;;;10.17;4.13;;;7.40;99.90;;;;;;5076495;28;20063;-76
2023/01/14 02:22:14;;;;;;;9.95;3.35;;;7.50;99.90;;;;;;5075648;28;20048;-77
2023/01/14 02:24:57;;;;;;;10.50;4.18;;;7.50;99.90;;;;;;5074358;28;20049;-76
2023/01/14 02:27:39;;;;;;;12.93;5.15;;;7.50;99.90;;;;;;5075935;28;20123;-77
2023/01/14 02:30:16;;;;;;;13.50;4.35;;;7.60;99.90;;;;;;5075202;28;20378;-76
2023/01/14 02:32:55;;;;;;;8.25;3.72;;;7.60;99.90;;;;;;5076118;28;20170;-76
2023/01/14 02:35:50;;;;;;;7.78;3.20;;;7.60;99.90;;;;;;5073884;28;20470;-76
2023/01/14 02:38:35;;;;;;;17.60;4.30;;;7.60;99.90;;;;;;5074160;28;20052;-76
2023/01/14 02:41:18;;;;;;;6.47;3.20;;;7.50;99.90;;;;;;5075233;28;20182;-77
2023/01/14 02:44:10;;;;;;;10.65;4.15;;;7.60;99.90;;;;;;5075601;28;20369;-76
2023/01/14 02:46:59;;;;;;;9.88;4.00;;;7.50;99.90;;;;;;5075007;28;20040;-76
2023/01/14 02:49:33;;;;;;;10.57;4.20;;;7.50;99.90;;;;;;5075411;28;20040;-76
2023/01/14 02:51:59;;;;;;;11.80;3.75;;;7.50;99.90;;;;;;5057680;28;20079;-77
2023/01/14 02:54:25;;;;;;;9.27;4.00;;;7.50;99.90;;;;;;5075155;28;20083;-76
2023/01/14 02:56:54;;;;;;;11.02;4.47;;;7.50;99.90;;;;;;5057168;28;20052;-77
2023/01/14 02:59:31;;;;;;;15.65;5.60;;;7.50;99.90;;;;;;5074701;28;20048;-77
2023/01/14 03:02:05;;;;;;;10.43;4.18;;;7.50;99.90;;;;;;5075175;28;20048;-77
2023/01/14 03:04:38;;;;;;;12.35;3.60;;;7.50;99.90;;;;;;5057362;28;20411;-76
2023/01/14 03:07:19;;;;;;;14.70;4.65;;;7.40;99.90;;;;;;5057446;28;20059;-77
2023/01/14 03:10:15;;;;;;;11.88;3.78;;;7.30;99.90;;;;;;5074667;28;20048;-77
2023/01/14 03:12:46;;;;;;;12.32;4.55;;;7.30;99.90;;;;;;5074669;28;20492;-77
2023/01/14 03:15:37;;;;;;;11.95;4.13;;;7.30;99.90;;;;;;5074449;28;20468;-77
2023/01/14 03:18:41;;;;;;;15.10;3.85;;;7.20;99.90;;;;;;5075250;28;20056;-77
2023/01/14 03:21:24;;;;;;;15.15;4.80;;;7.20;99.90;;;;;;5069950;28;20040;-77
2023/01/14 03:23:56;;;;;;;10.15;4.50;;;7.10;99.90;;;;;;5074737;28;20492;-77
2023/01/14 03:26:25;;;;;;;12.48;4.10;;;7.20;99.90;;;;;;5057601;28;20036;-77
2023/01/14 03:28:52;;;;;;;7.82;3.35;;;7.10;99.90;;;;;;5073346;28;20373;-77
2023/01/14 03:31:29;;;;;;;12.68;4.32;;;7.00;99.90;;;;;;5056628;28;20079;-77
2023/01/14 03:34:04;;;;;;;6.85;4.03;;;7.00;99.90;;;;;;5087991;28;20044;-77
2023/01/14 03:36:33;;;;;;;9.15;3.75;;;7.00;99.90;;;;;;5074888;28;20044;-77
2023/01/14 03:39:04;;;;;;;9.77;3.83;;;7.00;99.90;;;;;;5075066;28;20357;-78
2023/01/14 03:44:41;;;;;;;14.73;4.32;;;7.00;99.90;;;;;;5074589;28;20044;-77
2023/01/14 03:47:07;;;;;;;9.57;4.43;;;7.00;99.90;;;;;;5070301;28;20091;-77
2023/01/14 03:49:34;;;;;;;12.73;4.82;;;7.00;99.90;;;;;;5074055;28;20052;-78
2023/01/14 03:52:12;;;;;;;9.57;4.43;;;6.90;99.90;;;;;;5074238;28;20044;-78
2023/01/14 03:54:52;;;;;;;9.60;3.83;;;6.90;99.90;;;;;;5074267;28;20083;-77
2023/01/14 03:57:49;;;;;;;11.75;3.90;;;6.90;99.90;;;;;;5074116;28;20047;-77
2023/01/14 04:00:22;;;;;;;14.43;4.50;;;6.80;99.90;;;;;;5002527;28;20430;-79
2023/01/14 04:02:50;;;;;;;12.18;4.35;;;6.80;99.90;;;;;;5074241;28;20422;-77
2023/01/14 04:05:17;;;;;;;12.00;4.13;;;6.80;99.90;;;;;;5073837;28;20071;-77
2023/01/14 04:07:43;;;;;;;11.52;3.97;;;6.80;99.90;;;;;;5074036;28;20047;-76
2023/01/14 04:10:09;;;;;;;11.18;4.43;;;6.70;99.90;;;;;;5074457;28;20044;-76
2023/01/14 04:15:20;;;;;;;12.30;4.28;;;6.70;99.90;;;;;;5074121;28;20124;-77
2023/01/14 04:15:21;;;;;;;16.02;4.32;;;6.70;99.90;;;;;;5074473;28;20045;-77
2023/01/14 04:17:46;;;;;;;14.77;4.63;;;6.70;99.90;;;;;;5077933;28;20050;-77
2023/01/14 04:20:12;;;;;;;11.00;5.00;;;6.60;99.90;;;;;;5077637;28;20041;-77
2023/01/14 04:22:38;;;;;;;13.00;4.40;;;6.60;99.90;;;;;;5078490;28;20036;-77
2023/01/14 04:25:04;;;;;;;12.93;4.18;;;6.60;99.90;;;;;;5077906;28;20129;-77
2023/01/14 04:27:29;;;;;;;13.18;4.18;;;6.60;99.90;;;;;;5076984;28;20075;-76
2023/01/14 04:29:55;;;;;;;16.75;5.30;;;6.60;99.90;;;;;;5077790;28;20052;-76
2023/01/14 04:32:20;;;;;;;11.57;6.05;;;6.60;99.90;;;;;;5078689;28;20401;-77
2023/01/14 04:34:46;;;;;;;13.75;3.72;;;6.60;99.90;;;;;;5077812;28;20045;-76
2023/01/14 04:37:12;;;;;;;10.10;3.33;;;6.50;99.90;;;;;;5077529;28;20119;-77
2023/01/14 04:39:37;;;;;;;17.02;4.25;;;6.50;99.90;;;;;;5060070;28;20048;-77
2023/01/14 04:44:48;;;;;;;8.85;4.28;;;6.40;99.90;;;;;;5077604;28;20133;-77
2023/01/14 04:47:14;;;;;;;16.75;4.45;;;6.40;99.90;;;;;;5059577;28;20482;-77
2023/01/14 04:49:40;;;;;;;12.85;3.83;;;6.50;99.90;;;;;;5059522;28;20052;-76
2023/01/14 04:52:05;;;;;;;17.38;4.00;;;6.50;99.90;;;;;;5077391;28;20537;-78
2023/01/14 04:54:31;;;;;;;13.75;4.80;;;6.40;99.90;;;;;;5077142;28;20124;-77
2023/01/14 04:56:57;;;;;;;9.43;4.30;;;6.40;99.90;;;;;;5059357;28;20466;-77
2023/01/14 04:59:22;;;;;;;9.48;3.95;;;6.40;99.90;;;;;;5077225;28;20049;-77
2023/01/14 05:01:48;;;;;;;13.00;4.20;;;6.40;99.90;;;;;;5059555;28;20080;-77
2023/01/14 05:04:16;;;;;;;9.15;4.10;;;6.40;99.90;;;;;;5075927;28;20041;-77
2023/01/14 05:06:41;;;;;;;9.75;3.92;;;6.40;99.90;;;;;;5077052;28;20056;-77
2023/01/14 05:09:07;;;;;;;9.05;4.47;;;6.30;99.90;;;;;;5077016;28;20046;-77
2023/01/14 05:11:33;;;;;;;13.00;5.30;;;6.40;99.90;;;;;;5077093;28;20047;-77
2023/01/14 05:13:59;;;;;;;10.45;4.07;;;6.30;99.90;;;;;;5044734;28;20070;-78
2023/01/14 05:16:26;;;;;;;14.27;4.18;;;6.30;99.90;;;;;;5077143;28;20079;-77
2023/01/14 05:18:53;;;;;;;13.07;4.00;;;6.30;99.90;;;;;;5058968;28;20080;-77
2023/01/14 05:21:19;;;;;;;8.75;4.25;;;6.30;99.90;;;;;;5076658;28;20044;-77
2023/01/14 05:23:45;;;;;;;8.80;4.20;;;6.40;99.90;;;;;;5059230;28;20528;-77
2023/01/14 05:26:11;;;;;;;17.13;5.50;;;6.30;99.90;;;;;;5076292;28;20093;-78
2023/01/14 05:28:37;;;;;;;9.93;4.10;;;6.30;99.90;;;;;;5076528;28;20411;-78
2023/01/14 05:31:03;;;;;;;8.15;3.45;;;6.40;99.90;;;;;;5076474;28;20051;-77
2023/01/14 05:33:30;;;;;;;10.50;3.63;;;6.40;99.90;;;;;;5075451;28;20044;-78
2023/01/14 05:35:57;;;;;;;13.40;4.60;;;6.40;99.90;;;;;;5076316;28;20048;-77
2023/01/14 05:38:23;;;;;;;12.35;4.40;;;6.40;99.90;;;;;;5076593;28;20080;-78
2023/01/14 05:40:49;;;;;;;14.85;4.55;;;6.40;99.90;;;;;;5076377;28;20106;-78
2023/01/14 05:46:05;;;;;;;18.35;5.15;;;6.40;99.90;;;;;;5080791;28;20073;-76
2023/01/14 05:48:31;;;;;;;12.90;5.30;;;6.40;99.90;;;;;;5075981;28;20084;-76
2023/01/14 05:50:59;;;;;;;8.85;4.95;;;6.30;99.90;;;;;;5076068;28;20044;-76
2023/01/14 05:53:27;;;;;;;10.75;4.20;;;6.30;99.90;;;;;;5076085;28;20048;-76
2023/01/14 05:55:54;;;;;;;14.27;4.57;;;6.30;99.90;;;;;;5077216;28;20504;-76
2023/01/14 05:58:20;;;;;;;14.50;5.03;;;6.30;99.90;;;;;;5077754;28;20431;-77
2023/01/14 06:06:32;;;;;;;12.70;4.65;;;6.30;99.90;;;;;;5076393;28;20131;-76
2023/01/14 06:08:59;;;;;;;9.98;4.55;;;6.30;99.90;;;;;;5082415;28;20044;-77
2023/01/14 06:11:26;;;;;;;14.40;5.50;;;6.30;99.90;;;;;;5068818;28;20127;-76
2023/01/14 06:13:56;;;;;;;14.57;4.75;;;6.40;99.90;;;;;;5078328;28;20040;-77
2023/01/14 06:16:24;;;;;;;16.73;4.80;;;6.40;99.90;;;;;;5058345;28;20059;-77
2023/01/14 06:18:49;;;;;;;17.30;4.97;;;6.40;99.90;;;;;;5075514;28;20476;-77
2023/01/14 06:21:18;;;;;;;8.70;4.93;;;6.30;99.90;;;;;;5058016;28;20098;-77
2023/01/14 06:23:44;;;;;;;12.48;5.88;;;6.40;99.90;;;;;;5063097;28;20041;-76
2023/01/14 06:26:15;;;;;;;12.68;5.25;;;6.30;99.90;;;;;;5078455;28;20076;-76
2023/01/14 06:28:42;;;;;;;19.45;6.90;;;6.30;99.90;;;;;;5075386;28;20055;-77
2023/01/14 06:31:13;;;;;;;17.80;5.82;;;6.30;99.90;;;;;;5057391;28;20365;-77
2023/01/14 06:33:39;;;;;;;16.02;6.38;;;6.30;99.90;;;;;;5075945;28;20036;-77
2023/01/14 06:36:06;;;;;;;16.50;6.32;;;6.30;99.90;;;;;;5074889;28;20385;-76
2023/01/14 06:38:32;;;;;;;18.52;6.75;;;6.30;99.90;;;;;;5074464;28;20040;-76
2023/01/14 06:40:59;;;;;;;16.42;6.60;;;6.30;99.90;;;;;;5074991;28;20101;-78
2023/01/14 06:43:25;;;;;;;17.55;7.18;;;6.30;99.90;;;;;;5075063;28;20056;-78
2023/01/14 06:45:52;;;;;;;17.17;6.72;;;6.20;99.90;;;;;;5075902;28;20071;-77
2023/01/14 06:48:18;;;;;;;20.45;8.07;;;6.30;99.90;;;;;;5057244;28;20052;-77
2023/01/14 06:50:43;;;;;;;22.88;7.50;;;6.30;99.90;;;;;;5057504;28;20123;-77
2023/01/14 06:53:09;;;;;;;17.15;7.05;;;6.20;99.90;;;;;;5074653;28;20100;-77
2023/01/14 06:55:35;;;;;;;17.00;7.63;;;6.30;99.90;;;;;;5056686;28;20415;-78
2023/01/14 06:58:00;;;;;;;17.92;7.53;;;6.30;99.90;;;;;;5074858;28;20465;-78
2023/01/14 07:00:26;;;;;;;16.90;7.93;;;6.20;99.90;;;;;;5074723;28;20063;-76
2023/01/14 07:02:52;;;;;;;18.38;7.13;;;6.20;99.90;;;;;;5073772;28;20094;-78
2023/01/14 07:05:18;;;;;;;16.58;6.85;;;6.20;99.90;;;;;;5075567;28;20044;-77
2023/01/14 07:07:49;;;;;;;20.30;7.93;;;6.30;99.90;;;;;;5075245;28;20040;-77
2023/01/14 07:10:17;;;;;;;15.25;7.15;;;6.30;99.90;;;;;;5074963;28;20068;-77
2023/01/14 07:12:47;;;;;;;15.60;7.45;;;6.30;99.90;;;;;;5074644;28;20044;-77
2023/01/14 07:15:15;;;;;;;20.90;7.55;;;6.30;99.90;;;;;;5074428;28;20047;-77
2023/01/14 07:17:41;;;;;;;20.45;8.27;;;6.30;99.90;;;;;;5075137;28;20460;-77
2023/01/14 07:20:08;;;;;;;23.98;8.15;;;6.40;99.90;;;;;;5055834;28;20052;-77
2023/01/14 07:22:34;;;;;;;17.35;6.53;;;6.40;99.90;;;;;;5056304;28;20080;-77
2023/01/14 07:25:02;;;;;;;17.70;6.93;;;6.40;99.90;;;;;;5074267;28;20072;-77
2023/01/14 07:27:29;;;;;;;23.02;8.30;;;6.40;99.90;;;;;;5074771;28;20079;-77
2023/01/14 07:29:55;;;;;;;17.75;6.53;;;6.50;99.90;;;;;;5074163;28;20389;-77
2023/01/14 07:32:20;;;;;;;18.15;8.00;;;6.50;99.90;;;;;;5074182;28;20044;-77
2023/01/14 07:34:46;;;;;;;22.40;7.15;;;6.50;99.90;;;;;;5056032;28;20037;-78
2023/01/14 07:37:12;;;;;;;20.98;6.90;;;6.50;99.90;;;;;;5074665;28;20040;-76
2023/01/14 07:39:37;;;;;;;23.48;7.68;;;6.60;99.90;;;;;;5074756;28;20048;-77
2023/01/14 07:42:03;;;;;;;21.65;6.65;;;6.50;99.90;;;;;;5074729;28;20579;-76
2023/01/14 07:44:29;;;;;;;14.75;6.47;;;6.50;99.90;;;;;;5074893;28;20040;-76
2023/01/14 07:46:55;;;;;;;18.48;6.93;;;6.60;99.90;;;;;;5074237;28;20087;-76
2023/01/14 07:49:21;;;;;;;17.17;6.65;;;6.50;99.90;;;;;;5073959;28;20059;-76
2023/01/14 07:51:48;;;;;;;21.67;7.75;;;6.60;99.90;;;;;;5075014;28;20036;-77
2023/01/14 07:54:15;;;;;;;26.42;6.82;;;6.60;99.90;;;;;;5073902;28;20029;-76
2023/01/14 07:56:40;;;;;;;22.02;6.57;;;6.60;99.90;;;;;;5055996;28;20090;-76
2023/01/14 07:59:06;;;;;;;17.75;6.57;;;6.60;99.90;;;;;;5056159;28;20044;-77
2023/01/14 08:01:32;;;;;;;17.60;7.03;;;6.50;99.90;;;;;;5073781;28;20047;-76
2023/01/14 08:03:58;;;;;;;17.38;5.85;;;6.70;99.90;;;;;;5056511;28;20071;-76
2023/01/14 08:06:24;;;;;;;26.30;7.28;;;6.60;99.90;;;;;;5074185;28;20048;-75
2023/01/14 08:08:50;;;;;;;15.65;6.35;;;6.60;99.90;;;;;;5073513;28;20051;-75
2023/01/14 08:11:16;;;;;;;20.38;6.72;;;6.70;99.90;;;;;;5073959;28;20044;-76
2023/01/14 08:13:41;;;;;;;16.80;6.82;;;6.70;99.90;;;;;;5075906;28;20091;-75
2023/01/14 08:16:09;;;;;;;22.00;7.82;;;6.70;99.90;;;;;;5058654;28;20542;-75
2023/01/14 08:18:38;;;;;;;19.98;6.50;;;6.70;99.90;;;;;;5073693;28;20037;-75
2023/01/14 08:21:06;;;;;;;13.10;5.97;;;6.80;99.90;;;;;;5055893;28;20044;-75
2023/01/14 08:23:34;;;;;;;16.95;5.22;;;6.80;99.90;;;;;;5073734;28;20091;-75
2023/01/14 08:26:01;;;;;;;13.95;6.35;;;6.80;99.90;;;;;;5073964;28;20494;-76
2023/01/14 08:28:27;;;;;;;17.05;6.93;;;6.80;99.90;;;;;;5073731;28;20086;-76
2023/01/14 08:31:07;;;;;;;17.58;5.30;;;6.80;99.90;;;;;;5073606;28;20236;-75
2023/01/14 08:33:33;;;;;;;16.58;7.13;;;6.80;99.90;;;;;;5077594;28;20048;-76
2023/01/14 08:36:08;;;;;;;23.10;6.53;;;6.90;99.90;;;;;;5056126;28;20041;-75
2023/01/14 08:38:35;;;;;;;19.58;8.15;;;6.80;99.90;;;;;;5056337;28;20052;-75
2023/01/14 08:41:10;;;;;;;14.85;6.10;;;6.80;99.90;;;;;;5073959;28;20052;-76
2023/01/14 08:43:36;;;;;;;23.13;6.47;;;6.70;99.90;;;;;;5074176;28;20343;-75
2023/01/14 08:46:03;;;;;;;18.85;5.75;;;6.70;99.90;;;;;;5073334;28;20473;-75
2023/01/14 08:48:29;;;;;;;22.08;7.15;;;6.70;99.90;;;;;;5073817;28;20048;-74
2023/01/14 08:51:00;;;;;;;21.20;6.03;;;6.80;99.90;;;;;;5055920;28;20090;-73
2023/01/14 08:53:29;;;;;;;13.23;6.53;;;6.80;99.90;;;;;;5073731;28;20453;-74
2023/01/14 08:55:59;;;;;;;12.13;5.43;;;6.70;99.90;;;;;;5073304;28;20472;-73
2023/01/14 08:58:26;;;;;;;19.42;6.03;;;6.70;99.90;;;;;;5073125;28;20084;-73
2023/01/14 09:01:00;;;;;;;14.80;6.28;;;6.70;99.90;;;;;;5073416;28;20098;-73
2023/01/14 09:03:30;;;;;;;19.70;5.47;;;6.70;99.90;;;;;;5077046;28;20036;-71
2023/01/14 09:06:00;;;;;;;20.50;6.05;;;6.70;99.90;;;;;;5076580;28;20080;-72
2023/01/14 09:19:30;;;;;;;15.13;5.25;;;6.70;99.90;;;;;;5076418;28;20040;-71
2023/01/14 09:21:56;;;;;;;11.20;5.07;;;6.60;99.90;;;;;;5076474;28;20045;-71
2023/01/14 09:24:22;;;;;;;12.43;5.25;;;6.60;99.90;;;;;;5076467;28;20039;-71
2023/01/14 09:26:47;;;;;;;17.90;5.80;;;6.70;99.90;;;;;;5076879;28;20449;-71
2023/01/14 09:29:13;;;;;;;15.93;6.35;;;6.60;99.90;;;;;;5059009;28;20087;-71
2023/01/14 09:31:39;;;;;;;21.50;5.57;;;6.70;99.90;;;;;;5076321;28;20044;-71
2023/01/14 09:34:04;;;;;;;18.75;5.30;;;6.60;99.90;;;;;;5076544;28;20044;-71
2023/01/14 09:36:30;;;;;;;13.52;5.32;;;6.60;99.90;;;;;;5076309;28;20044;-71
2023/01/14 09:38:56;;;;;;;10.55;5.68;;;6.60;99.90;;;;;;5058881;28;20048;-71
2023/01/14 09:41:30;;;;;;;19.27;6.35;;;6.60;99.90;;;;;;5057918;28;20048;-71
2023/01/14 09:43:56;;;;;;;9.80;5.70;;;6.70;99.90;;;;;;5076229;28;20053;-71
2023/01/14 09:46:25;;;;;;;9.93;5.47;;;6.70;99.90;;;;;;5076001;28;20036;-71
2023/01/14 09:48:53;;;;;;;16.33;5.15;;;6.60;99.90;;;;;;5075988;28;20098;-71
2023/01/14 09:51:37;;;;;;;17.30;5.75;;;6.60;99.90;;;;;;5075555;28;20538;-71
2023/01/14 09:54:24;;;;;;;13.38;5.20;;;6.70;99.90;;;;;;5075790;28;20051;-70
2023/01/14 09:57:00;;;;;;;9.43;3.88;;;6.70;99.90;;;;;;5076442;28;20090;-71
2023/01/14 09:59:37;;;;;;;10.73;3.95;;;6.70;99.90;;;;;;5058310;28;20040;-71
2023/01/14 10:02:26;;;;;;;10.98;3.97;;;6.70;99.90;;;;;;5076286;28;20055;-71
2023/01/14 10:05:29;;;;;;;6.65;4.32;;;6.70;99.90;;;;;;5076017;28;20115;-71
2023/01/14 10:07:59;;;;;;;8.23;3.40;;;6.70;99.90;;;;;;5033481;28;20055;-71
2023/01/14 10:10:33;;;;;;;5.82;3.22;;;6.70;99.90;;;;;;5076108;28;20040;-71
2023/01/14 10:13:09;;;;;;;7.53;2.80;;;6.80;99.90;;;;;;5074439;28;20040;-71
2023/01/14 10:15:55;;;;;;;7.30;2.92;;;6.80;99.90;;;;;;5075554;28;20055;-71
2023/01/14 10:18:31;;;;;;;4.80;2.63;;;6.80;99.90;;;;;;5075536;28;20047;-71
2023/01/14 10:21:02;;;;;;;7.75;3.30;;;6.80;99.90;;;;;;5075494;28;20074;-71
2023/01/14 10:23:31;;;;;;;8.52;2.92;;;6.80;99.90;;;;;;5075331;28;20051;-71
2023/01/14 10:25:57;;;;;;;5.22;3.20;;;6.80;99.90;;;;;;5075165;28;20048;-71
2023/01/14 10:28:27;;;;;;;4.45;2.38;;;6.90;99.90;;;;;;5075441;28;20071;-71
2023/01/14 10:30:53;;;;;;;5.43;2.50;;;6.90;99.90;;;;;;5075148;28;20123;-71
2023/01/14 10:33:21;;;;;;;7.22;3.08;;;7.00;99.90;;;;;;5074160;28;20083;-71
2023/01/14 10:36:14;;;;;;;3.40;2.35;;;6.90;99.90;;;;;;5075067;28;20053;-71
2023/01/14 10:38:42;;;;;;;3.80;2.25;;;7.00;99.90;;;;;;5075307;28;20045;-71
2023/01/14 10:41:11;;;;;;;6.32;2.35;;;7.00;99.90;;;;;;5057440;28;20114;-71
2023/01/14 10:43:46;;;;;;;3.33;1.98;;;7.00;99.90;;;;;;5075346;28;20080;-71
2023/01/14 10:46:22;;;;;;;5.40;2.38;;;7.00;99.90;;;;;;5074906;28;20070;-71
2023/01/14 10:48:53;;;;;;;3.35;2.17;;;7.10;99.90;;;;;;5074888;28;20093;-79
2023/01/14 10:51:47;;;;;;;5.28;3.33;;;7.10;99.90;;;;;;5073873;28;20088;-80
2023/01/14 10:54:21;;;;;;;4.50;2.78;;;7.10;99.90;;;;;;5074705;28;20090;-80
2023/01/14 10:57:07;;;;;;;2.47;2.05;;;7.10;99.90;;;;;;5057913;28;20119;-79
2023/01/14 10:59:42;;;;;;;3.78;2.25;;;7.20;99.90;;;;;;5057826;28;20365;-79
2023/01/14 11:02:29;;;;;;;4.50;2.35;;;7.20;99.90;;;;;;5074519;28;20045;-79
2023/01/14 11:04:55;;;;;;;6.25;2.50;;;7.20;99.90;;;;;;5057624;28;20558;-79
2023/01/14 11:07:36;;;;;;;3.70;2.85;;;7.20;99.90;;;;;;5074336;28;20036;-79
2023/01/14 11:10:17;;;;;;;3.30;2.38;;;7.30;99.90;;;;;;5057074;28;20115;-71
2023/01/14 11:12:43;;;;;;;3.20;2.13;;;7.40;99.90;;;;;;5074618;28;20040;-71
2023/01/14 11:15:28;;;;;;;2.33;1.92;;;7.40;99.90;;;;;;5074218;28;20109;-70
2023/01/14 11:17:54;;;;;;;10.23;2.85;;;7.40;99.90;;;;;;5074448;28;20051;-70
2023/01/14 11:20:23;;;;;;;3.20;2.60;;;7.50;99.90;;;;;;5074462;28;20048;-74
2023/01/14 11:23:20;;;;;;;3.15;2.28;;;7.50;99.90;;;;;;5074210;28;20079;-70
2023/01/14 11:25:49;;;;;;;4.78;1.88;;;7.50;99.90;;;;;;5054915;28;20396;-70
2023/01/14 11:28:15;;;;;;;6.68;2.40;;;7.50;99.90;;;;;;5055630;28;20048;-75
2023/01/14 11:30:43;;;;;;;4.25;1.83;;;7.50;99.90;;;;;;5056870;28;20044;-75
2023/01/14 11:33:22;;;;;;;2.05;1.85;;;7.50;99.90;;;;;;5073734;28;20403;-75
2023/01/14 11:35:51;;;;;;;4.93;1.90;;;7.50;99.90;;;;;;5073749;28;20036;-75
2023/01/14 11:38:21;;;;;;;2.70;1.85;;;7.50;99.90;;;;;;5056434;28;20048;-75
2023/01/14 11:43:50;;;;;;;3.05;2.05;;;7.50;99.90;;;;;;5073533;28;20048;-74
2023/01/14 11:46:16;;;;;;;3.58;1.90;;;7.50;99.90;;;;;;5073841;28;20044;-74
2023/01/14 11:48:42;;;;;;;2.97;2.22;;;7.60;99.90;;;;;;5073625;28;20473;-75
2023/01/14 11:51:18;;;;;;;4.13;1.92;;;7.50;99.90;;;;;;5073720;28;20465;-75
2023/01/14 11:53:45;;;;;;;3.60;1.73;;;7.50;99.90;;;;;;5074376;28;20048;-75
2023/01/14 11:56:40;;;;;;;2.20;1.95;;;7.50;99.90;;;;;;5073454;28;20044;-75
2023/01/14 11:59:28;;;;;;;5.93;2.72;;;7.60;99.90;;;;;;5072373;28;20070;-75
2023/01/14 12:02:03;;;;;;;2.40;1.90;;;7.50;99.90;;;;;;5073423;28;20167;-75
2023/01/14 12:04:42;;;;;;;8.10;1.85;;;7.60;99.90;;;;;;5073644;28;20457;-75
2023/01/14 12:07:13;;;;;;;3.25;2.33;;;7.60;99.90;;;;;;5073643;28;20137;-74
2023/01/14 12:09:48;;;;;;;7.38;2.00;;;7.70;99.90;;;;;;5073982;28;20484;-75
2023/01/14 12:12:24;;;;;;;2.72;1.58;;;7.70;99.90;;;;;;5074426;28;20106;-74
2023/01/14 12:18:06;;;;;;;4.65;1.77;;;7.70;99.90;;;;;;4991862;28;20069;-75
2023/01/14 12:20:32;;;;;;;1.73;1.42;;;7.70;99.90;;;;;;4992593;28;20046;-75
2023/01/14 12:23:08;;;;;;;2.95;1.85;;;7.60;99.90;;;;;;4996841;28;20551;-75
2023/01/14 12:25:44;;;;;;;2.95;1.67;;;7.70;99.90;;;;;;5074045;28;20101;-75
2023/01/14 12:28:25;;;;;;;7.32;1.70;;;7.70;99.90;;;;;;5073485;28;20040;-75
2023/01/14 12:30:53;;;;;;;1.80;1.60;;;7.70;99.90;;;;;;5074054;28;20123;-78
2023/01/14 12:33:31;;;;;;;4.22;1.48;;;7.70;99.90;;;;;;5074315;28;20037;-79
2023/01/14 12:36:14;;;;;;;1.25;1.10;;;7.80;99.90;;;;;;5073950;28;20036;-76
2023/01/14 12:47:28;;;;;;;3.08;1.70;;;7.90;99.90;;;;;;5077218;28;20044;-76
2023/01/14 12:49:54;;;;;;;2.40;1.48;;;7.90;99.90;;;;;;5078051;28;20056;-76
2023/01/14 12:52:33;;;;;;;1.50;1.20;;;7.90;99.90;;;;;;5077043;28;20040;-75
2023/01/14 12:55:00;;;;;;;2.35;1.70;;;8.00;99.90;;;;;;5077001;28;20084;-75
2023/01/14 12:57:27;;;;;;;2.53;1.40;;;8.00;99.90;;;;;;5059167;28;20040;-76
2023/01/14 13:00:04;;;;;;;1.63;1.40;;;8.00;99.90;;;;;;5059084;28;20041;-75
2023/01/14 13:02:41;;;;;;;2.40;1.10;;;8.10;99.90;;;;;;5076915;28;20087;-75
2023/01/14 13:05:13;;;;;;;1.75;1.65;;;8.10;99.90;;;;;;5077494;28;20444;-75
2023/01/14 13:07:50;;;;;;;2.88;1.77;;;8.20;99.90;;;;;;5076785;28;20124;-75
2023/01/14 13:10:37;;;;;;;2.15;1.70;;;8.20;99.90;;;;;;5077118;28;20123;-76
2023/01/14 13:13:21;;;;;;;1.63;1.52;;;8.20;99.90;;;;;;5077586;28;20036;-76
2023/01/14 13:15:47;;;;;;;1.52;0.95;;;8.30;99.90;;;;;;5077372;28;20072;-76
2023/01/14 13:18:31;;;;;;;0.88;0.88;;;8.40;99.90;;;;;;5077021;28;20541;-75
2023/01/14 13:20:57;;;;;;;1.88;1.05;;;8.40;99.90;;;;;;5076537;28;20051;-75
2023/01/14 13:23:52;;;;;;;2.25;1.20;;;8.40;99.90;;;;;;5076453;28;20115;-74
2023/01/14 13:26:19;;;;;;;1.55;1.45;;;8.50;99.90;;;;;;5058730;28;20044;-74
2023/01/14 13:29:16;;;;;;;0.90;0.90;;;8.50;99.90;;;;;;5076848;28;20361;-75
2023/01/14 13:31:43;;;;;;;1.27;1.00;;;8.50;99.90;;;;;;5058728;28;20472;-75
2023/01/14 13:34:21;;;;;;;1.70;1.13;;;8.60;99.90;;;;;;5058357;28;20419;-76
2023/01/14 13:36:47;;;;;;;1.15;1.00;;;8.60;99.90;;;;;;5076280;28;20037;-74
2023/01/14 13:39:19;;;;;;;1.63;1.45;;;8.70;99.90;;;;;;5076721;28;20044;-75
2023/01/14 13:41:48;;;;;;;1.00;0.93;;;8.70;99.90;;;;;;5075890;28;20056;-74
2023/01/14 13:44:22;;;;;;;1.63;1.02;;;8.80;99.90;;;;;;5076062;28;20041;-74
2023/01/14 13:47:36;;;;;;;1.75;0.98;;;8.80;99.90;;;;;;5075733;28;20044;-74
2023/01/14 13:50:05;;;;;;;1.60;1.52;;;8.90;99.90;;;;;;5040145;28;20053;-73